Time;durP1;ratioP1;P1;durP2;ratioP2;P2;SDS_P1;SDS_P2;PMS_P1;PMS_P2;Temp;Humidity;BMP_temperature;BMP_pressure;BME280_temperature;BME280_humidity;BME280_pressure;Samples;Min_cycle;Max_cycle;Signal;HPM_P1;HPM_P2
2023/09/15 00:00:25;;;;;;;4.63;2.63;;;;;;;;;;4945435;29;20578;-79
2023/09/15 00:02:55;;;;;;;4.57;2.40;;;;;;;;;;4956476;28;20239;-79
2023/09/15 00:05:21;;;;;;;6.93;2.70;;;;;;;;;;4954924;29;20200;-79
2023/09/15 00:07:47;;;;;;;3.13;2.37;;;;;;;;;;4951356;29;20280;-79
2023/09/15 00:10:19;;;;;;;3.27;2.23;;;;;;;;;;4951775;29;20701;-79
2023/09/15 00:12:45;;;;;;;5.43;2.50;;;;;;;;;;4956123;28;20200;-79
2023/09/15 00:15:12;;;;;;;5.27;2.60;;;;;;;;;;4969181;28;20196;-78
2023/09/15 00:17:40;;;;;;;3.57;2.53;;;;;;;;;;4955503;29;20228;-79
2023/09/15 00:20:20;;;;;;;5.37;2.60;;;;;;;;;;4955619;29;20193;-79
2023/09/15 00:22:49;;;;;;;3.90;2.47;;;;;;;;;;4949068;29;20668;-79
2023/09/15 00:25:33;;;;;;;4.60;2.80;;;;;;;;;;4955712;29;20272;-79
2023/09/15 00:28:00;;;;;;;5.47;2.97;;;;;;;;;;4957440;28;20209;-78
2023/09/15 00:30:27;;;;;;;4.40;2.80;;;;;;;;;;4955294;28;20689;-79
2023/09/15 00:32:54;;;;;;;4.57;2.70;;;;;;;;;;4955115;28;20193;-78
2023/09/15 00:35:22;;;;;;;5.50;2.63;;;;;;;;;;4951512;29;20708;-79
2023/09/15 00:37:49;;;;;;;6.43;2.90;;;;;;;;;;4953432;29;20213;-79
2023/09/15 00:40:16;;;;;;;4.57;2.67;;;;;;;;;;4954076;28;20225;-79
2023/09/15 00:42:44;;;;;;;5.33;2.80;;;;;;;;;;4951242;29;20214;-79
2023/09/15 00:45:14;;;;;;;4.87;2.60;;;;;;;;;;4936443;29;20189;-78
2023/09/15 00:47:43;;;;;;;4.07;2.50;;;;;;;;;;4935673;29;20205;-78
2023/09/15 00:50:10;;;;;;;3.43;2.50;;;;;;;;;;4952748;28;20196;-78
2023/09/15 00:52:36;;;;;;;4.30;2.67;;;;;;;;;;4935834;29;20224;-79
2023/09/15 00:55:04;;;;;;;5.20;2.70;;;;;;;;;;4969033;28;20228;-79
2023/09/15 00:57:30;;;;;;;4.90;2.70;;;;;;;;;;4954468;28;20594;-79
2023/09/15 00:59:56;;;;;;;4.63;2.70;;;;;;;;;;4950732;29;20204;-79
2023/09/15 01:02:23;;;;;;;3.23;2.27;;;;;;;;;;4953047;29;20557;-79
2023/09/15 01:04:49;;;;;;;6.73;2.60;;;;;;;;;;4953003;29;20197;-78
2023/09/15 01:07:15;;;;;;;3.50;2.43;;;;;;;;;;4954029;28;20833;-79
2023/09/15 01:09:42;;;;;;;6.13;2.57;;;;;;;;;;4953983;29;20192;-79
2023/09/15 01:12:08;;;;;;;3.80;3.00;;;;;;;;;;4949876;29;20196;-79
2023/09/15 01:14:35;;;;;;;4.27;2.60;;;;;;;;;;4951604;29;20777;-78
2023/09/15 01:17:12;;;;;;;4.00;2.70;;;;;;;;;;4954462;28;20221;-79
2023/09/15 01:19:50;;;;;;;3.53;2.50;;;;;;;;;;4954677;29;20188;-79
2023/09/15 01:22:16;;;;;;;5.30;2.77;;;;;;;;;;4946013;29;20217;-79
2023/09/15 01:24:51;;;;;;;3.77;2.40;;;;;;;;;;4954799;28;20198;-78
2023/09/15 01:27:30;;;;;;;3.07;2.53;;;;;;;;;;4937355;29;20243;-79
2023/09/15 01:30:00;;;;;;;4.30;2.50;;;;;;;;;;4953194;29;20720;-78
2023/09/15 01:32:27;;;;;;;3.90;2.40;;;;;;;;;;4953338;29;20199;-78
2023/09/15 01:34:53;;;;;;;4.13;2.70;;;;;;;;;;4935905;29;20194;-78
2023/09/15 01:37:20;;;;;;;2.50;2.30;;;;;;;;;;4949579;29;20264;-79
2023/09/15 01:39:46;;;;;;;5.03;2.40;;;;;;;;;;4951624;29;20223;-78
2023/09/15 01:42:12;;;;;;;5.10;2.50;;;;;;;;;;4934418;29;20217;-78
2023/09/15 01:44:38;;;;;;;5.27;2.70;;;;;;;;;;4952389;29;20174;-78
2023/09/15 01:47:08;;;;;;;3.17;2.30;;;;;;;;;;4949636;29;20201;-78
2023/09/15 01:49:35;;;;;;;4.97;2.63;;;;;;;;;;4933378;29;21363;-78
2023/09/15 01:52:02;;;;;;;5.03;2.43;;;;;;;;;;4950422;29;20236;-79
2023/09/15 01:54:28;;;;;;;3.80;2.47;;;;;;;;;;4951243;29;20244;-78
2023/09/15 01:56:54;;;;;;;4.83;2.37;;;;;;;;;;4953547;29;20240;-79
2023/09/15 01:59:20;;;;;;;4.30;2.37;;;;;;;;;;4952170;29;20246;-78
2023/09/15 02:01:46;;;;;;;4.77;2.67;;;;;;;;;;4950883;29;20216;-78
2023/09/15 02:04:12;;;;;;;5.13;2.60;;;;;;;;;;4936612;29;20186;-78
2023/09/15 02:06:39;;;;;;;3.43;2.40;;;;;;;;;;4957063;28;20201;-78
2023/09/15 02:09:06;;;;;;;6.10;2.73;;;;;;;;;;4952004;29;20189;-78
2023/09/15 02:11:32;;;;;;;3.47;2.47;;;;;;;;;;4953627;28;20842;-78
2023/09/15 02:13:58;;;;;;;4.50;2.50;;;;;;;;;;4936197;29;20197;-78
2023/09/15 02:16:24;;;;;;;3.77;2.33;;;;;;;;;;4935743;29;20278;-78
2023/09/15 02:18:50;;;;;;;4.47;2.33;;;;;;;;;;4953777;29;20677;-79
2023/09/15 02:21:17;;;;;;;5.73;2.40;;;;;;;;;;4952546;29;20227;-78
2023/09/15 02:23:43;;;;;;;3.73;2.73;;;;;;;;;;4952031;29;20423;-78
2023/09/15 02:26:09;;;;;;;4.30;2.40;;;;;;;;;;4948394;29;20185;-78
2023/09/15 02:28:35;;;;;;;3.70;2.50;;;;;;;;;;4951244;28;20189;-78
2023/09/15 02:31:05;;;;;;;4.83;2.60;;;;;;;;;;4953306;28;20208;-78
2023/09/15 02:33:31;;;;;;;3.60;2.37;;;;;;;;;;4951726;29;20200;-78
2023/09/15 02:35:57;;;;;;;4.03;2.30;;;;;;;;;;4952611;29;20186;-78
2023/09/15 02:38:24;;;;;;;4.87;2.60;;;;;;;;;;4949504;29;20201;-79
2023/09/15 02:40:50;;;;;;;4.87;2.70;;;;;;;;;;4935685;29;20272;-78
2023/09/15 02:43:16;;;;;;;7.17;2.97;;;;;;;;;;4935970;29;20681;-78
2023/09/15 02:45:42;;;;;;;3.47;2.70;;;;;;;;;;4951744;29;20193;-78
2023/09/15 02:48:08;;;;;;;4.60;2.80;;;;;;;;;;4948059;29;20205;-79
2023/09/15 02:50:35;;;;;;;5.23;3.00;;;;;;;;;;4950772;29;20192;-79
2023/09/15 02:53:01;;;;;;;4.47;2.83;;;;;;;;;;4951600;29;20204;-78
2023/09/15 02:55:28;;;;;;;5.03;2.80;;;;;;;;;;4935447;29;20204;-78
2023/09/15 02:57:54;;;;;;;6.13;3.00;;;;;;;;;;4951193;29;20236;-78
2023/09/15 03:00:21;;;;;;;7.57;3.03;;;;;;;;;;4938191;29;20189;-79
2023/09/15 03:02:48;;;;;;;3.63;2.50;;;;;;;;;;4935226;29;20642;-78
2023/09/15 03:05:15;;;;;;;3.97;2.80;;;;;;;;;;4919218;29;20239;-78
2023/09/15 03:07:42;;;;;;;4.30;2.70;;;;;;;;;;4949527;29;20240;-78
2023/09/15 03:10:11;;;;;;;5.27;2.90;;;;;;;;;;4949013;29;20279;-78
2023/09/15 03:12:37;;;;;;;4.80;3.03;;;;;;;;;;4932729;29;20204;-78
2023/09/15 03:15:06;;;;;;;4.13;2.57;;;;;;;;;;4929771;29;20193;-78
2023/09/15 03:17:33;;;;;;;4.50;2.83;;;;;;;;;;4931784;29;20225;-78
2023/09/15 03:19:59;;;;;;;4.53;2.80;;;;;;;;;;4947581;28;20205;-78
2023/09/15 03:22:27;;;;;;;4.30;2.90;;;;;;;;;;4934389;29;20224;-78
2023/09/15 03:24:55;;;;;;;3.80;3.17;;;;;;;;;;4949106;29;20200;-78
2023/09/15 03:27:21;;;;;;;4.40;2.87;;;;;;;;;;4947498;29;20281;-78
2023/09/15 03:29:48;;;;;;;5.30;2.97;;;;;;;;;;4946851;29;20192;-78
2023/09/15 03:32:14;;;;;;;4.27;2.60;;;;;;;;;;4933667;29;20192;-78
2023/09/15 03:34:41;;;;;;;4.50;2.80;;;;;;;;;;4932842;29;20193;-78
2023/09/15 03:37:09;;;;;;;5.33;3.20;;;;;;;;;;4946250;29;20204;-78
2023/09/15 03:39:35;;;;;;;6.73;3.00;;;;;;;;;;4950139;29;20198;-78
2023/09/15 03:42:01;;;;;;;6.00;3.13;;;;;;;;;;4949870;28;20212;-78
2023/09/15 03:44:28;;;;;;;2.90;2.60;;;;;;;;;;4932864;29;20185;-78
2023/09/15 03:46:54;;;;;;;3.07;2.70;;;;;;;;;;4940472;29;20232;-78
2023/09/15 03:49:20;;;;;;;4.40;3.00;;;;;;;;;;4930654;29;20186;-78
2023/09/15 03:51:47;;;;;;;5.07;2.90;;;;;;;;;;4947552;29;20190;-78
2023/09/15 03:54:13;;;;;;;4.07;2.77;;;;;;;;;;4948690;29;20193;-78
2023/09/15 03:56:39;;;;;;;4.47;2.90;;;;;;;;;;4932550;29;20209;-78
2023/09/15 03:59:06;;;;;;;4.30;2.73;;;;;;;;;;4941570;29;20190;-79
2023/09/15 04:01:32;;;;;;;6.50;3.30;;;;;;;;;;4949092;29;20210;-78
2023/09/15 04:04:01;;;;;;;5.07;3.20;;;;;;;;;;4947491;29;20177;-79
2023/09/15 04:06:28;;;;;;;6.90;3.07;;;;;;;;;;4943617;29;20209;-79
2023/09/15 04:08:55;;;;;;;5.60;3.00;;;;;;;;;;4948576;29;20185;-79
2023/09/15 04:11:21;;;;;;;5.18;3.10;;;;;;;;;;4967496;28;20506;-78
2023/09/15 04:13:48;;;;;;;4.90;3.00;;;;;;;;;;4947652;29;20216;-79
2023/09/15 04:16:14;;;;;;;4.40;3.07;;;;;;;;;;4949411;29;20303;-78
2023/09/15 04:18:40;;;;;;;4.30;2.87;;;;;;;;;;4951493;29;20230;-79
2023/09/15 04:21:07;;;;;;;4.80;3.23;;;;;;;;;;4934467;29;20209;-79
2023/09/15 04:23:33;;;;;;;6.03;3.30;;;;;;;;;;4949700;29;20182;-79
2023/09/15 04:26:01;;;;;;;8.47;3.20;;;;;;;;;;4950473;28;20189;-79
2023/09/15 04:28:28;;;;;;;5.97;3.30;;;;;;;;;;4950348;28;20315;-79
2023/09/15 04:30:55;;;;;;;5.47;2.80;;;;;;;;;;4954170;29;20657;-78
2023/09/15 04:33:21;;;;;;;5.77;3.60;;;;;;;;;;4951255;29;20237;-79
2023/09/15 04:35:48;;;;;;;5.30;3.30;;;;;;;;;;4919688;29;21012;-79
2023/09/15 04:38:14;;;;;;;4.73;3.13;;;;;;;;;;4943689;29;20213;-79
2023/09/15 04:40:41;;;;;;;5.27;3.40;;;;;;;;;;4951858;29;20197;-79
2023/09/15 04:43:08;;;;;;;5.65;3.60;;;;;;;;;;4951900;29;20424;-78
2023/09/15 04:45:35;;;;;;;5.10;3.30;;;;;;;;;;4951650;29;20199;-79
2023/09/15 04:48:03;;;;;;;6.20;3.30;;;;;;;;;;4950582;29;20331;-79
2023/09/15 04:50:30;;;;;;;5.63;3.37;;;;;;;;;;4951732;29;20245;-79
2023/09/15 04:52:56;;;;;;;5.80;3.33;;;;;;;;;;4952998;29;20435;-79
2023/09/15 04:55:23;;;;;;;5.10;3.00;;;;;;;;;;4967973;28;20185;-79
2023/09/15 04:57:49;;;;;;;5.20;3.57;;;;;;;;;;4951229;29;20255;-79
2023/09/15 05:00:23;;;;;;;4.67;3.53;;;;;;;;;;4951751;29;20192;-79
2023/09/15 05:02:55;;;;;;;8.37;3.83;;;;;;;;;;4951849;29;20218;-79
2023/09/15 05:05:22;;;;;;;6.20;3.77;;;;;;;;;;4933884;29;20300;-78
2023/09/15 05:07:48;;;;;;;6.77;3.40;;;;;;;;;;4918960;29;20210;-79
2023/09/15 05:10:14;;;;;;;7.30;3.50;;;;;;;;;;4917587;29;20260;-79
2023/09/15 05:12:40;;;;;;;5.20;3.40;;;;;;;;;;4953126;29;20196;-79
2023/09/15 05:15:08;;;;;;;5.63;3.40;;;;;;;;;;4933901;29;20330;-78
2023/09/15 05:17:36;;;;;;;5.60;3.33;;;;;;;;;;4952401;29;20228;-82
2023/09/15 05:20:03;;;;;;;4.27;3.43;;;;;;;;;;4921118;28;20680;-80
2023/09/15 05:22:29;;;;;;;4.73;3.20;;;;;;;;;;4950218;29;20201;-78
2023/09/15 05:24:58;;;;;;;6.67;3.20;;;;;;;;;;4937124;29;20188;-78
2023/09/15 05:27:24;;;;;;;6.87;3.23;;;;;;;;;;4950636;28;20221;-80
2023/09/15 05:29:51;;;;;;;7.23;3.60;;;;;;;;;;4952678;29;20185;-78
2023/09/15 05:32:17;;;;;;;8.13;3.33;;;;;;;;;;4952984;29;20244;-82
2023/09/15 05:34:43;;;;;;;7.17;3.60;;;;;;;;;;4950696;29;20190;-82
2023/09/15 05:37:09;;;;;;;6.20;3.53;;;;;;;;;;4954368;28;20209;-80
2023/09/15 05:39:35;;;;;;;8.47;3.70;;;;;;;;;;4937495;28;20209;-82
2023/09/15 05:42:02;;;;;;;7.00;3.87;;;;;;;;;;4946085;29;20216;-82
2023/09/15 05:44:28;;;;;;;6.83;3.20;;;;;;;;;;4930184;29;20181;-82
2023/09/15 05:46:54;;;;;;;10.30;3.57;;;;;;;;;;4949359;28;20208;-82
2023/09/15 05:49:20;;;;;;;7.13;3.47;;;;;;;;;;4948855;29;20237;-81
2023/09/15 05:51:46;;;;;;;6.33;3.77;;;;;;;;;;4952584;29;20201;-81
2023/09/15 05:54:13;;;;;;;9.53;4.13;;;;;;;;;;4953758;28;20200;-81
2023/09/15 05:56:40;;;;;;;8.63;4.00;;;;;;;;;;4949016;29;20217;-82
2023/09/15 05:59:06;;;;;;;9.67;3.83;;;;;;;;;;4968346;28;20236;-82
2023/09/15 06:01:32;;;;;;;9.30;3.80;;;;;;;;;;4948151;29;20221;-82
2023/09/15 06:03:59;;;;;;;6.80;4.03;;;;;;;;;;4955034;29;20185;-81
2023/09/15 06:06:26;;;;;;;7.70;3.60;;;;;;;;;;4956177;29;20193;-81
2023/09/15 06:08:53;;;;;;;9.20;3.77;;;;;;;;;;4954129;29;20215;-82
2023/09/15 06:11:19;;;;;;;6.43;4.07;;;;;;;;;;4972695;28;20193;-82
2023/09/15 06:13:47;;;;;;;8.67;4.23;;;;;;;;;;4954243;29;20193;-81
2023/09/15 06:16:13;;;;;;;6.03;4.23;;;;;;;;;;4952876;29;20200;-81
2023/09/15 06:18:39;;;;;;;6.73;4.13;;;;;;;;;;4955768;29;20196;-83
2023/09/15 06:21:05;;;;;;;9.60;4.50;;;;;;;;;;4955405;28;20261;-83
2023/09/15 06:23:31;;;;;;;6.63;4.03;;;;;;;;;;4921325;29;20540;-79
2023/09/15 06:25:57;;;;;;;7.80;4.53;;;;;;;;;;4956315;28;20186;-80
2023/09/15 06:28:24;;;;;;;8.73;4.03;;;;;;;;;;4953641;28;20209;-84
2023/09/15 06:30:50;;;;;;;7.50;3.83;;;;;;;;;;4936370;29;20188;-84
2023/09/15 06:33:17;;;;;;;8.60;4.27;;;;;;;;;;4936675;29;20177;-80
2023/09/15 06:35:44;;;;;;;5.60;3.53;;;;;;;;;;4968055;28;20681;-84
2023/09/15 06:38:11;;;;;;;6.57;3.97;;;;;;;;;;4952075;29;20217;-86
2023/09/15 06:40:37;;;;;;;9.93;3.83;;;;;;;;;;4919066;29;20190;-88
2023/09/15 06:43:07;;;;;;;8.30;4.10;;;;;;;;;;4935044;29;20255;-86
2023/09/15 06:45:35;;;;;;;5.30;3.77;;;;;;;;;;4918884;29;20199;-87
2023/09/15 06:48:04;;;;;;;7.83;3.90;;;;;;;;;;4953173;28;20212;-86
2023/09/15 06:50:31;;;;;;;7.30;4.10;;;;;;;;;;4968154;28;20205;-86
2023/09/15 06:52:57;;;;;;;7.47;3.90;;;;;;;;;;4936102;29;20670;-87
2023/09/15 06:55:24;;;;;;;7.93;4.23;;;;;;;;;;4934174;29;20562;-88
2023/09/15 06:57:51;;;;;;;5.93;3.70;;;;;;;;;;4933963;29;20268;-86
2023/09/15 07:00:17;;;;;;;7.10;4.13;;;;;;;;;;4934100;29;20280;-88
2023/09/15 07:02:43;;;;;;;11.77;4.60;;;;;;;;;;4935167;29;20231;-88
2023/09/15 07:05:11;;;;;;;9.07;4.63;;;;;;;;;;4935934;29;20217;-88
2023/09/15 07:07:37;;;;;;;8.53;4.30;;;;;;;;;;4935078;29;20217;-88
2023/09/15 07:10:04;;;;;;;10.67;4.60;;;;;;;;;;4919454;29;20231;-87
2023/09/15 07:12:30;;;;;;;6.60;4.27;;;;;;;;;;4941593;29;20349;-88
2023/09/15 07:15:00;;;;;;;9.70;4.40;;;;;;;;;;4952251;29;20223;-88
2023/09/15 07:17:27;;;;;;;5.57;3.70;;;;;;;;;;4935925;29;20228;-87
2023/09/15 07:19:53;;;;;;;9.10;4.47;;;;;;;;;;4935719;29;20208;-87
2023/09/15 07:22:19;;;;;;;8.30;4.40;;;;;;;;;;4919302;29;20212;-88
2023/09/15 07:24:45;;;;;;;10.63;5.00;;;;;;;;;;4935794;29;20220;-88
2023/09/15 07:27:12;;;;;;;10.67;4.87;;;;;;;;;;4930992;29;20673;-88
2023/09/15 07:29:39;;;;;;;8.33;4.80;;;;;;;;;;4935453;29;20336;-87
2023/09/15 07:32:06;;;;;;;10.60;4.57;;;;;;;;;;4952050;29;20188;-88
2023/09/15 07:34:32;;;;;;;10.87;4.80;;;;;;;;;;4935628;29;20801;-89
2023/09/15 07:37:00;;;;;;;10.03;4.63;;;;;;;;;;4919487;29;20216;-88
2023/09/15 07:39:26;;;;;;;11.20;5.20;;;;;;;;;;4918157;29;20197;-88
2023/09/15 07:41:52;;;;;;;7.73;4.97;;;;;;;;;;4936041;29;20211;-88
2023/09/15 07:44:18;;;;;;;12.30;5.50;;;;;;;;;;4949312;29;20193;-87
2023/09/15 07:46:45;;;;;;;8.23;5.07;;;;;;;;;;4937755;29;20287;-87
2023/09/15 07:49:11;;;;;;;7.90;4.93;;;;;;;;;;4934684;29;20281;-87
2023/09/15 07:51:37;;;;;;;7.43;4.90;;;;;;;;;;4934148;29;20197;-88
2023/09/15 07:54:03;;;;;;;7.93;4.50;;;;;;;;;;4919360;29;20200;-82
2023/09/15 07:56:29;;;;;;;6.23;4.47;;;;;;;;;;4936547;29;20223;-87
2023/09/15 07:58:55;;;;;;;7.57;4.60;;;;;;;;;;4924318;29;20193;-90
2023/09/15 08:01:21;;;;;;;6.10;4.33;;;;;;;;;;4971214;28;20824;-87
2023/09/15 08:03:48;;;;;;;12.37;4.10;;;;;;;;;;4953141;28;20582;-88
2023/09/15 08:06:15;;;;;;;10.47;4.37;;;;;;;;;;4936816;29;20187;-87
2023/09/15 08:08:42;;;;;;;11.70;4.80;;;;;;;;;;4968070;28;20220;-86
2023/09/15 08:11:09;;;;;;;12.37;5.07;;;;;;;;;;4954772;28;20194;-79
2023/09/15 08:13:35;;;;;;;12.57;4.53;;;;;;;;;;4956991;29;20712;-82
2023/09/15 08:16:01;;;;;;;13.50;4.60;;;;;;;;;;4953846;28;20292;-87
2023/09/15 08:18:28;;;;;;;10.80;4.20;;;;;;;;;;4956158;29;20189;-87
2023/09/15 08:20:54;;;;;;;14.50;4.80;;;;;;;;;;4972003;28;20350;-87
2023/09/15 08:23:20;;;;;;;11.77;4.67;;;;;;;;;;4957914;29;20185;-87
2023/09/15 08:25:46;;;;;;;15.57;4.50;;;;;;;;;;4940092;29;20185;-87
2023/09/15 08:28:12;;;;;;;14.60;5.27;;;;;;;;;;4923637;29;20213;-87
2023/09/15 08:30:39;;;;;;;16.07;4.27;;;;;;;;;;4955449;29;20197;-88
2023/09/15 08:33:06;;;;;;;13.60;4.63;;;;;;;;;;4939545;29;20193;-87
2023/09/15 08:35:32;;;;;;;9.73;4.37;;;;;;;;;;4953815;29;20186;-87
2023/09/15 08:37:59;;;;;;;10.53;4.80;;;;;;;;;;4953972;29;20285;-86
2023/09/15 08:40:26;;;;;;;8.13;4.30;;;;;;;;;;4921381;29;20191;-87
2023/09/15 08:42:53;;;;;;;9.63;4.00;;;;;;;;;;4969585;28;20260;-87
2023/09/15 08:45:20;;;;;;;10.50;3.93;;;;;;;;;;4933083;29;20194;-86
2023/09/15 08:47:47;;;;;;;7.43;4.13;;;;;;;;;;4937577;29;20913;-87
2023/09/15 08:50:14;;;;;;;6.43;4.30;;;;;;;;;;4924786;29;20228;-86
2023/09/15 08:52:41;;;;;;;7.27;4.37;;;;;;;;;;4954405;29;20619;-87
2023/09/15 08:55:07;;;;;;;9.27;4.43;;;;;;;;;;4954956;28;20212;-87
2023/09/15 08:57:35;;;;;;;6.90;4.60;;;;;;;;;;4947342;29;20264;-87
2023/09/15 09:00:01;;;;;;;10.20;5.13;;;;;;;;;;4970904;28;20197;-87
2023/09/15 09:02:28;;;;;;;12.03;5.20;;;;;;;;;;4938659;29;20298;-86
2023/09/15 09:04:54;;;;;;;7.93;5.00;;;;;;;;;;4955799;28;20220;-87
2023/09/15 09:07:21;;;;;;;9.67;5.10;;;;;;;;;;4955830;29;20201;-87
2023/09/15 09:09:48;;;;;;;10.93;4.50;;;;;;;;;;4956156;28;20248;-85
2023/09/15 09:12:14;;;;;;;9.00;4.40;;;;;;;;;;4936834;29;20534;-85
2023/09/15 09:14:42;;;;;;;6.47;4.30;;;;;;;;;;4971179;28;20495;-86
2023/09/15 09:17:08;;;;;;;8.70;3.80;;;;;;;;;;4938843;29;20263;-83
2023/09/15 09:19:35;;;;;;;8.30;4.43;;;;;;;;;;4971123;28;20193;-82
2023/09/15 09:22:01;;;;;;;6.87;4.67;;;;;;;;;;4953177;29;20693;-81
2023/09/15 09:24:28;;;;;;;5.73;4.20;;;;;;;;;;4939740;29;20200;-83
2023/09/15 09:26:57;;;;;;;6.63;4.17;;;;;;;;;;4956394;28;20201;-83
2023/09/15 09:29:25;;;;;;;5.63;3.83;;;;;;;;;;4940418;29;20530;-82
2023/09/15 09:31:51;;;;;;;6.73;4.30;;;;;;;;;;4952958;28;20225;-82
2023/09/15 09:34:18;;;;;;;5.53;3.80;;;;;;;;;;4954864;29;20339;-82
2023/09/15 09:36:51;;;;;;;4.60;3.50;;;;;;;;;;4954147;29;20217;-82
2023/09/15 09:39:17;;;;;;;7.53;3.67;;;;;;;;;;4956155;29;20590;-84
2023/09/15 09:41:44;;;;;;;4.60;3.77;;;;;;;;;;4954198;29;20217;-83
2023/09/15 09:44:14;;;;;;;4.93;3.50;;;;;;;;;;4956666;29;20192;-83
2023/09/15 09:46:41;;;;;;;8.13;3.33;;;;;;;;;;4935515;29;20224;-82
2023/09/15 09:49:07;;;;;;;7.90;3.90;;;;;;;;;;4951489;29;20629;-80
2023/09/15 09:51:35;;;;;;;11.30;3.83;;;;;;;;;;4952896;28;20190;-79
2023/09/15 09:54:01;;;;;;;6.73;3.50;;;;;;;;;;4960409;29;20193;-83
2023/09/15 09:56:30;;;;;;;7.60;3.63;;;;;;;;;;4975374;28;20216;-82
2023/09/15 09:59:01;;;;;;;6.83;3.30;;;;;;;;;;4953481;29;20189;-82
2023/09/15 10:01:29;;;;;;;5.70;3.60;;;;;;;;;;4952872;28;20703;-83
2023/09/15 10:03:55;;;;;;;7.10;3.80;;;;;;;;;;4953892;29;20798;-81
2023/09/15 10:06:22;;;;;;;4.63;3.37;;;;;;;;;;4955017;29;20705;-80
2023/09/15 10:08:48;;;;;;;6.60;3.73;;;;;;;;;;4972118;28;20280;-80
2023/09/15 10:11:15;;;;;;;6.33;3.30;;;;;;;;;;4961140;28;20276;-82
2023/09/15 10:13:42;;;;;;;5.20;3.57;;;;;;;;;;4961000;28;20221;-82
2023/09/15 10:16:08;;;;;;;7.63;3.50;;;;;;;;;;4940869;29;20323;-83
2023/09/15 10:18:35;;;;;;;7.10;3.67;;;;;;;;;;4960099;29;21095;-82
2023/09/15 10:21:01;;;;;;;5.83;3.50;;;;;;;;;;4943693;29;20186;-82
2023/09/15 10:23:30;;;;;;;6.87;3.57;;;;;;;;;;4974048;28;20181;-83
2023/09/15 10:25:56;;;;;;;5.93;3.47;;;;;;;;;;4957073;28;20192;-83
2023/09/15 10:28:24;;;;;;;8.43;3.50;;;;;;;;;;4957326;29;20216;-87
2023/09/15 10:30:57;;;;;;;6.13;3.23;;;;;;;;;;4939690;29;20749;-86
2023/09/15 10:33:23;;;;;;;6.53;3.53;;;;;;;;;;4958843;28;20305;-84
2023/09/15 10:35:50;;;;;;;6.20;3.80;;;;;;;;;;4941490;29;20569;-85
2023/09/15 10:38:35;;;;;;;9.30;3.53;;;;;;;;;;4950143;29;20256;-88
2023/09/15 10:41:34;;;;;;;5.40;3.50;;;;;;;;;;4949662;29;20198;-85
2023/09/15 10:44:04;;;;;;;5.23;3.13;;;;;;;;;;4964059;29;20173;-85
2023/09/15 10:46:54;;;;;;;7.27;3.53;;;;;;;;;;4959089;29;20199;-89
2023/09/15 10:49:36;;;;;;;6.50;3.07;;;;;;;;;;4951545;29;20201;-90
2023/09/15 10:52:03;;;;;;;4.63;3.37;;;;;;;;;;4962103;29;20516;-86
2023/09/15 10:54:33;;;;;;;5.17;3.70;;;;;;;;;;4944516;28;20228;-86
2023/09/15 10:57:00;;;;;;;6.20;3.60;;;;;;;;;;4943827;28;20204;-88
2023/09/15 10:59:26;;;;;;;4.90;3.37;;;;;;;;;;4939980;29;20173;-86
2023/09/15 11:01:53;;;;;;;7.53;3.27;;;;;;;;;;4950746;29;20224;-84
2023/09/15 11:04:22;;;;;;;4.10;3.20;;;;;;;;;;4950613;29;20184;-79
2023/09/15 11:06:50;;;;;;;3.87;3.30;;;;;;;;;;4952971;29;20200;-79
2023/09/15 11:09:17;;;;;;;5.07;3.60;;;;;;;;;;4952669;29;20645;-79
2023/09/15 11:11:47;;;;;;;5.90;3.40;;;;;;;;;;4952104;29;20224;-85
2023/09/15 11:14:16;;;;;;;5.50;3.30;;;;;;;;;;4950573;29;20711;-85
2023/09/15 11:16:44;;;;;;;5.63;3.30;;;;;;;;;;4936484;29;20268;-85
2023/09/15 11:19:11;;;;;;;5.80;3.60;;;;;;;;;;4970506;28;20653;-83
2023/09/15 11:21:37;;;;;;;3.70;3.40;;;;;;;;;;4953287;28;20214;-86
2023/09/15 11:24:04;;;;;;;4.77;3.43;;;;;;;;;;4934995;29;20189;-84
2023/09/15 11:26:30;;;;;;;5.67;3.30;;;;;;;;;;4948655;29;20213;-83
2023/09/15 11:28:56;;;;;;;7.07;3.30;;;;;;;;;;4948967;29;20189;-83
2023/09/15 11:31:22;;;;;;;3.73;3.40;;;;;;;;;;4954403;29;20668;-83
2023/09/15 11:33:49;;;;;;;6.93;3.43;;;;;;;;;;4951043;28;20275;-82
2023/09/15 11:36:16;;;;;;;5.50;3.63;;;;;;;;;;4952158;29;20190;-83
2023/09/15 11:38:42;;;;;;;4.90;3.40;;;;;;;;;;4952407;29;20199;-82
2023/09/15 11:41:08;;;;;;;4.33;2.90;;;;;;;;;;4954067;28;20187;-80
2023/09/15 11:43:35;;;;;;;3.80;3.13;;;;;;;;;;4949847;29;20654;-80
2023/09/15 11:46:01;;;;;;;4.83;3.53;;;;;;;;;;4951488;29;20236;-80
2023/09/15 11:48:28;;;;;;;4.63;3.10;;;;;;;;;;4955782;29;20188;-80
2023/09/15 11:50:57;;;;;;;5.37;3.10;;;;;;;;;;4958006;28;20276;-85
2023/09/15 11:53:25;;;;;;;4.10;3.10;;;;;;;;;;4955135;28;20184;-80
2023/09/15 11:55:51;;;;;;;3.30;3.00;;;;;;;;;;4952818;28;20197;-76
2023/09/15 11:58:18;;;;;;;5.33;3.17;;;;;;;;;;4955486;29;20204;-85
2023/09/15 12:00:44;;;;;;;3.80;3.00;;;;;;;;;;4952721;28;20207;-83
2023/09/15 12:03:11;;;;;;;4.10;2.60;;;;;;;;;;4955911;28;20223;-81
2023/09/15 12:05:37;;;;;;;3.30;3.00;;;;;;;;;;4940733;29;20295;-85
2023/09/15 12:08:03;;;;;;;2.97;2.60;;;;;;;;;;4971883;28;20296;-85
2023/09/15 12:10:29;;;;;;;3.40;3.10;;;;;;;;;;4938197;29;20602;-85
2023/09/15 12:12:59;;;;;;;7.00;3.03;;;;;;;;;;4937351;29;20180;-85
2023/09/15 12:15:26;;;;;;;3.40;2.70;;;;;;;;;;4950424;29;20200;-85
2023/09/15 12:17:53;;;;;;;3.77;2.50;;;;;;;;;;4952618;29;20275;-85
2023/09/15 12:20:25;;;;;;;3.33;2.53;;;;;;;;;;4954058;28;20188;-85
2023/09/15 12:22:54;;;;;;;3.43;2.90;;;;;;;;;;4947286;28;20230;-85
2023/09/15 12:25:21;;;;;;;3.90;2.60;;;;;;;;;;4923949;29;20239;-85
2023/09/15 12:27:47;;;;;;;6.13;2.87;;;;;;;;;;4950138;29;20216;-85
2023/09/15 12:30:14;;;;;;;5.67;3.13;;;;;;;;;;4949831;29;20183;-85
2023/09/15 12:32:40;;;;;;;3.30;2.77;;;;;;;;;;4952362;29;20233;-85
2023/09/15 12:35:11;;;;;;;3.10;2.77;;;;;;;;;;4969326;28;20196;-86
2023/09/15 12:37:40;;;;;;;3.10;2.80;;;;;;;;;;4962712;28;20210;-86
2023/09/15 12:40:06;;;;;;;4.77;2.50;;;;;;;;;;4935323;29;20200;-85
2023/09/15 12:42:33;;;;;;;4.23;2.53;;;;;;;;;;4936868;29;20224;-85
2023/09/15 12:44:59;;;;;;;3.33;2.50;;;;;;;;;;4950517;29;20192;-85
2023/09/15 12:47:25;;;;;;;3.10;2.80;;;;;;;;;;4947463;29;20201;-85
2023/09/15 12:49:51;;;;;;;3.83;2.60;;;;;;;;;;4951602;28;20267;-85
2023/09/15 12:52:18;;;;;;;2.50;2.30;;;;;;;;;;4971046;28;20199;-85
2023/09/15 12:54:44;;;;;;;4.33;2.63;;;;;;;;;;4970167;28;20203;-85
2023/09/15 12:57:10;;;;;;;3.83;2.43;;;;;;;;;;4952325;29;20210;-85
2023/09/15 12:59:36;;;;;;;2.77;2.33;;;;;;;;;;4954458;29;20186;-85
2023/09/15 13:02:02;;;;;;;2.53;2.30;;;;;;;;;;4950389;29;20216;-85
2023/09/15 13:04:28;;;;;;;5.10;2.70;;;;;;;;;;4953896;29;20298;-85
2023/09/15 13:06:56;;;;;;;2.93;2.40;;;;;;;;;;4938713;29;20207;-85
2023/09/15 13:09:27;;;;;;;4.40;2.37;;;;;;;;;;4954319;28;20187;-84
2023/09/15 13:12:00;;;;;;;2.70;2.50;;;;;;;;;;4969256;28;20223;-84
2023/09/15 13:14:26;;;;;;;3.17;2.60;;;;;;;;;;4954513;28;20184;-85
2023/09/15 13:16:53;;;;;;;2.97;2.50;;;;;;;;;;4948775;29;20224;-86
2023/09/15 13:19:19;;;;;;;2.70;2.50;;;;;;;;;;4924274;29;20528;-85
2023/09/15 13:21:45;;;;;;;4.00;2.50;;;;;;;;;;4957356;29;20227;-85
2023/09/15 13:24:11;;;;;;;5.57;2.53;;;;;;;;;;4956763;29;20276;-85
2023/09/15 13:26:37;;;;;;;2.90;2.40;;;;;;;;;;4957731;29;20287;-86
2023/09/15 13:29:04;;;;;;;3.63;2.60;;;;;;;;;;4972444;28;20193;-85
2023/09/15 13:31:30;;;;;;;2.90;2.53;;;;;;;;;;4957151;29;20185;-86
2023/09/15 13:33:56;;;;;;;3.73;2.50;;;;;;;;;;4954918;29;20247;-86
2023/09/15 13:36:23;;;;;;;3.70;2.30;;;;;;;;;;4959034;29;20217;-85
2023/09/15 13:38:50;;;;;;;2.47;2.10;;;;;;;;;;4956236;29;20186;-85
2023/09/15 13:41:16;;;;;;;2.40;2.17;;;;;;;;;;4956180;28;20280;-85
2023/09/15 13:43:42;;;;;;;3.10;2.40;;;;;;;;;;4954331;29;20195;-85
2023/09/15 13:46:08;;;;;;;2.90;2.20;;;;;;;;;;4952854;29;20199;-86
2023/09/15 13:48:35;;;;;;;3.43;2.50;;;;;;;;;;4958621;28;20175;-88
2023/09/15 13:51:01;;;;;;;2.20;2.00;;;;;;;;;;4956147;29;20186;-85
2023/09/15 13:53:27;;;;;;;2.80;2.00;;;;;;;;;;4957580;28;20265;-84
2023/09/15 13:55:53;;;;;;;2.37;2.20;;;;;;;;;;4954749;29;20192;-83
2023/09/15 13:58:20;;;;;;;3.50;2.27;;;;;;;;;;4973066;28;20213;-85
2023/09/15 14:00:57;;;;;;;2.27;2.10;;;;;;;;;;4929229;28;20204;-86
2023/09/15 14:03:23;;;;;;;3.53;2.10;;;;;;;;;;4931161;29;20219;-86
2023/09/15 14:05:50;;;;;;;2.30;2.10;;;;;;;;;;4951317;29;20195;-85
2023/09/15 14:08:16;;;;;;;2.43;2.23;;;;;;;;;;4967008;28;20218;-86
2023/09/15 14:10:43;;;;;;;1.90;1.80;;;;;;;;;;4936827;29;20190;-85
2023/09/15 14:13:09;;;;;;;2.00;1.80;;;;;;;;;;4952093;29;20233;-85
2023/09/15 14:15:35;;;;;;;2.00;1.90;;;;;;;;;;4952856;29;20190;-86
2023/09/15 14:18:02;;;;;;;2.60;2.00;;;;;;;;;;4952872;29;20225;-85
2023/09/15 14:20:28;;;;;;;2.20;2.00;;;;;;;;;;4921498;29;20190;-85
2023/09/15 14:22:55;;;;;;;2.07;1.97;;;;;;;;;;4952791;29;21591;-86
2023/09/15 14:25:21;;;;;;;2.13;1.97;;;;;;;;;;4936919;29;20196;-85
2023/09/15 14:27:47;;;;;;;2.63;1.87;;;;;;;;;;4967096;28;20222;-85
2023/09/15 14:30:13;;;;;;;3.90;2.03;;;;;;;;;;4937009;29;20533;-85
2023/09/15 14:32:39;;;;;;;2.10;1.90;;;;;;;;;;4952312;29;20188;-85
2023/09/15 14:35:06;;;;;;;2.10;1.90;;;;;;;;;;4952678;29;20195;-85
2023/09/15 14:37:35;;;;;;;2.30;2.20;;;;;;;;;;4953271;28;20216;-85
2023/09/15 14:40:03;;;;;;;2.20;2.10;;;;;;;;;;4916640;29;20234;-85
2023/09/15 14:42:30;;;;;;;2.10;2.00;;;;;;;;;;4953044;28;20721;-86